Time;durP1;ratioP1;P1;durP2;ratioP2;P2;SDS_P1;SDS_P2;PMS_P1;PMS_P2;Temp;Humidity;BMP_temperature;BMP_pressure;BME280_temperature;BME280_humidity;BME280_pressure;Samples;Min_cycle;Max_cycle;Signal;HPM_P1;HPM_P2
2021/04/21 00:01:04;;;;;;;15.33;13.80;;;9.20;99.90;;;;;;5035482;28;20871;-60
2021/04/21 00:03:30;;;;;;;17.23;13.53;;;9.20;99.90;;;;;;5035429;28;21068;-60
2021/04/21 00:05:58;;;;;;;16.50;14.83;;;9.10;99.90;;;;;;5035243;28;20423;-59
2021/04/21 00:08:26;;;;;;;14.13;12.50;;;9.00;99.90;;;;;;5035711;28;20404;-59
2021/04/21 00:10:53;;;;;;;16.33;14.63;;;8.90;99.90;;;;;;5035299;28;20905;-57
2021/04/21 00:13:22;;;;;;;17.80;16.00;;;8.70;99.90;;;;;;5035408;28;20806;-60
2021/04/21 00:15:48;;;;;;;19.33;17.07;;;8.80;99.90;;;;;;5036653;28;20492;-60
2021/04/21 00:18:15;;;;;;;18.20;15.27;;;8.70;99.90;;;;;;5035524;28;20417;-59
2021/04/21 00:20:42;;;;;;;17.67;15.87;;;8.70;99.90;;;;;;5035344;28;20751;-59
2021/04/21 00:23:11;;;;;;;15.33;13.80;;;8.80;99.90;;;;;;5035145;28;20513;-59
2021/04/21 00:25:38;;;;;;;16.57;14.90;;;8.90;99.90;;;;;;5035048;28;20782;-60
2021/04/21 00:28:05;;;;;;;18.27;16.37;;;8.90;99.90;;;;;;5035043;28;20461;-58
2021/04/21 00:30:32;;;;;;;18.40;16.40;;;8.90;99.90;;;;;;5035385;28;20398;-59
2021/04/21 00:32:59;;;;;;;18.17;16.27;;;8.80;99.90;;;;;;5035422;28;20409;-60
2021/04/21 00:35:34;;;;;;;17.13;15.43;;;8.70;99.90;;;;;;5037053;28;20421;-60
2021/04/21 00:38:02;;;;;;;16.50;14.80;;;8.80;99.90;;;;;;5034402;28;20489;-61
2021/04/21 00:40:54;;;;;;;17.80;16.00;;;8.80;99.90;;;;;;5034863;28;20895;-60
2021/04/21 00:43:39;;;;;;;19.20;17.20;;;8.70;99.90;;;;;;5033687;28;20483;-60
2021/04/21 00:46:11;;;;;;;19.63;17.10;;;8.50;99.90;;;;;;5034466;28;20403;-60
2021/04/21 00:49:08;;;;;;;17.87;15.97;;;8.40;99.90;;;;;;5034914;28;20412;-61
2021/04/21 00:52:01;;;;;;;17.27;15.57;;;8.40;99.90;;;;;;5031925;28;20781;-60
2021/04/21 00:54:50;;;;;;;17.80;15.20;;;8.40;99.90;;;;;;5061589;22;20522;-58
2021/04/21 00:57:31;;;;;;;19.20;16.57;;;8.50;99.90;;;;;;5074173;28;20431;-59
2021/04/21 01:00:13;;;;;;;17.53;15.63;;;8.30;99.90;;;;;;5074525;28;20385;-58
2021/04/21 01:02:56;;;;;;;19.57;17.47;;;8.30;99.90;;;;;;5074158;28;20415;-56
2021/04/21 01:05:29;;;;;;;21.37;17.07;;;8.20;99.90;;;;;;5073863;28;20447;-57
2021/04/21 01:07:58;;;;;;;17.70;15.80;;;8.20;99.90;;;;;;5073503;28;20523;-57
2021/04/21 01:10:29;;;;;;;18.57;16.57;;;8.30;99.90;;;;;;5074125;28;20412;-57
2021/04/21 01:12:57;;;;;;;20.17;18.00;;;8.40;99.90;;;;;;5074145;28;20400;-58
2021/04/21 01:15:24;;;;;;;18.00;16.20;;;8.30;99.90;;;;;;5073923;28;20416;-57
2021/04/21 01:17:52;;;;;;;18.90;15.73;;;8.40;99.90;;;;;;5073853;28;20432;-56
2021/04/21 01:20:34;;;;;;;20.87;17.47;;;8.50;99.90;;;;;;5067723;28;20755;-57
2021/04/21 01:23:15;;;;;;;18.40;16.30;;;8.40;99.90;;;;;;5058377;28;20419;-56
2021/04/21 01:25:46;;;;;;;20.50;18.27;;;8.30;99.90;;;;;;5053305;28;20490;-59
2021/04/21 01:28:17;;;;;;;19.57;17.47;;;8.30;99.90;;;;;;5053538;28;20445;-57
2021/04/21 01:30:45;;;;;;;23.53;17.03;;;8.20;99.90;;;;;;5053613;28;20854;-59
2021/04/21 01:33:17;;;;;;;22.20;19.10;;;8.40;99.90;;;;;;5053550;28;20397;-57
2021/04/21 01:35:45;;;;;;;18.40;16.40;;;8.30;99.90;;;;;;5053684;28;20918;-58
2021/04/21 01:38:12;;;;;;;19.00;16.33;;;8.20;99.90;;;;;;5053472;28;20404;-58
2021/04/21 01:40:44;;;;;;;22.00;18.50;;;8.20;99.90;;;;;;5052678;28;20397;-57
2021/04/21 01:43:20;;;;;;;22.57;20.07;;;8.20;99.90;;;;;;5052837;28;20470;-57
2021/04/21 01:45:50;;;;;;;20.27;17.97;;;8.20;99.90;;;;;;5053240;28;21042;-58
2021/04/21 01:48:21;;;;;;;20.93;17.80;;;8.30;99.90;;;;;;5052681;28;20449;-57
2021/04/21 01:50:48;;;;;;;21.33;17.40;;;8.30;99.90;;;;;;5052697;28;20825;-59
2021/04/21 01:53:25;;;;;;;20.27;16.70;;;8.30;99.90;;;;;;5053301;28;20441;-55
2021/04/21 01:56:03;;;;;;;22.47;19.07;;;8.30;99.90;;;;;;5053221;28;20964;-59
2021/04/21 01:58:56;;;;;;;21.90;18.53;;;8.30;99.90;;;;;;5053421;28;20759;-58
2021/04/21 02:01:43;;;;;;;20.00;17.73;;;8.20;99.90;;;;;;5053451;28;20788;-56
2021/04/21 02:04:42;;;;;;;21.40;19.10;;;8.10;99.90;;;;;;5053036;28;20420;-58
2021/04/21 02:07:27;;;;;;;23.00;19.30;;;8.20;99.90;;;;;;5052497;28;20453;-57
2021/04/21 02:10:39;;;;;;;20.97;17.53;;;8.10;99.90;;;;;;5051988;28;20428;-57
2021/04/21 02:13:38;;;;;;;25.57;20.47;;;8.10;99.90;;;;;;4980923;28;20425;-57
2021/04/21 02:16:25;;;;;;;24.43;20.60;;;8.10;99.90;;;;;;4995142;28;20821;-56
2021/04/21 02:19:26;;;;;;;25.30;20.77;;;8.00;99.90;;;;;;5053223;28;20393;-58
2021/04/21 02:22:25;;;;;;;21.03;18.40;;;8.00;99.90;;;;;;5035046;28;20404;-57
2021/04/21 02:25:02;;;;;;;24.00;20.30;;;7.90;99.90;;;;;;5052986;28;20417;-58
2021/04/21 02:28:08;;;;;;;26.60;21.87;;;7.90;99.90;;;;;;5053589;28;20436;-58
2021/04/21 02:30:52;;;;;;;27.73;21.20;;;8.00;99.90;;;;;;5041533;28;20417;-58
2021/04/21 02:33:27;;;;;;;22.90;20.33;;;7.90;99.90;;;;;;5052576;28;20386;-56
2021/04/21 02:35:57;;;;;;;22.30;19.90;;;7.80;99.90;;;;;;5053001;28;20422;-56
2021/04/21 02:38:34;;;;;;;22.93;20.30;;;7.70;99.90;;;;;;5053130;28;20772;-58
2021/04/21 02:41:18;;;;;;;25.10;20.80;;;7.60;99.90;;;;;;5054601;28;20775;-57
2021/04/21 02:44:03;;;;;;;25.23;21.43;;;7.70;99.90;;;;;;5052705;28;20416;-58
2021/04/21 02:46:57;;;;;;;25.47;20.77;;;7.80;99.90;;;;;;5052476;28;20483;-58
2021/04/21 02:49:33;;;;;;;24.77;21.67;;;7.90;99.90;;;;;;5052692;28;20402;-58
2021/04/21 02:52:16;;;;;;;24.13;21.00;;;7.90;99.90;;;;;;5053000;28;20369;-59
2021/04/21 02:55:09;;;;;;;27.93;21.10;;;7.80;99.90;;;;;;5056383;28;20490;-58
2021/04/21 02:58:07;;;;;;;26.17;22.70;;;7.80;99.90;;;;;;5056422;28;20412;-57
2021/04/21 03:01:13;;;;;;;22.83;19.87;;;7.80;99.90;;;;;;5056202;28;20393;-57
2021/04/21 03:04:12;;;;;;;25.13;21.17;;;7.90;99.90;;;;;;5042871;28;20466;-57
2021/04/21 03:06:42;;;;;;;24.60;19.83;;;7.80;99.90;;;;;;5056280;28;20433;-59
2021/04/21 03:09:24;;;;;;;25.83;21.47;;;7.70;99.90;;;;;;5057052;28;20916;-58
2021/04/21 03:11:50;;;;;;;26.40;21.40;;;7.60;99.90;;;;;;5056299;28;20412;-59
2021/04/21 03:14:29;;;;;;;24.87;20.07;;;7.50;99.90;;;;;;5056067;28;20521;-58
2021/04/21 03:17:00;;;;;;;30.17;23.20;;;7.50;99.90;;;;;;5056765;28;20416;-58
2021/04/21 03:19:36;;;;;;;25.00;20.27;;;7.40;99.90;;;;;;5056726;28;20385;-59
2021/04/21 03:22:13;;;;;;;27.40;20.10;;;7.50;99.90;;;;;;5056759;28;20749;-58
2021/04/21 03:24:48;;;;;;;26.60;22.60;;;7.50;99.90;;;;;;5056652;28;20443;-57
2021/04/21 03:27:14;;;;;;;27.13;20.83;;;7.40;99.90;;;;;;5056136;28;20440;-58
2021/04/21 03:29:46;;;;;;;25.60;21.37;;;7.40;99.90;;;;;;5055637;28;20412;-59
2021/04/21 03:32:15;;;;;;;25.80;21.80;;;7.40;99.90;;;;;;5056071;28;20933;-57
2021/04/21 03:34:43;;;;;;;23.80;20.17;;;7.30;99.90;;;;;;5056095;28;20425;-56
2021/04/21 03:37:55;;;;;;;27.90;22.67;;;7.40;99.90;;;;;;5055407;28;20462;-59
2021/04/21 03:40:21;;;;;;;34.33;24.33;;;7.50;99.90;;;;;;5045608;28;20424;-58
2021/04/21 03:42:48;;;;;;;26.60;22.63;;;7.40;99.90;;;;;;5055461;28;20423;-58
2021/04/21 03:45:14;;;;;;;25.90;23.00;;;7.40;99.90;;;;;;5055483;28;20436;-59
2021/04/21 03:47:41;;;;;;;30.37;24.10;;;7.40;99.90;;;;;;5055807;28;20794;-58
2021/04/21 03:50:08;;;;;;;30.50;23.20;;;7.40;99.90;;;;;;5055509;28;20437;-57
2021/04/21 03:52:38;;;;;;;26.20;23.10;;;7.40;99.90;;;;;;5055630;28;20409;-58
2021/04/21 03:55:05;;;;;;;30.57;25.10;;;7.30;99.90;;;;;;5055328;28;20851;-57
2021/04/21 03:57:33;;;;;;;31.90;25.83;;;7.30;99.90;;;;;;5055239;28;20417;-56
2021/04/21 04:00:01;;;;;;;28.60;23.50;;;7.10;99.90;;;;;;5056396;28;20463;-55
2021/04/21 04:02:31;;;;;;;33.37;25.70;;;7.20;99.90;;;;;;5055353;28;20404;-58
2021/04/21 04:05:00;;;;;;;30.63;24.80;;;7.10;99.90;;;;;;5054500;28;20467;-58
2021/04/21 04:07:27;;;;;;;27.87;24.30;;;7.00;99.90;;;;;;5055358;28;20831;-59
2021/04/21 04:09:56;;;;;;;33.20;25.53;;;7.10;99.90;;;;;;5055118;28;20405;-59
2021/04/21 04:12:26;;;;;;;30.33;24.67;;;7.00;99.90;;;;;;5055042;28;20405;-58
2021/04/21 04:14:54;;;;;;;34.27;26.80;;;7.10;99.90;;;;;;5054821;28;20486;-58
2021/04/21 04:17:22;;;;;;;32.90;26.47;;;7.20;99.90;;;;;;5055184;28;20424;-59
2021/04/21 04:19:48;;;;;;;32.47;26.30;;;7.10;99.90;;;;;;5055242;28;20433;-55
2021/04/21 04:22:18;;;;;;;28.20;23.60;;;7.10;99.90;;;;;;5054790;28;20474;-56
2021/04/21 04:24:55;;;;;;;37.80;28.50;;;7.10;99.90;;;;;;5054721;28;20427;-57
2021/04/21 04:27:23;;;;;;;32.37;27.03;;;7.00;99.90;;;;;;5054660;28;20436;-57
2021/04/21 04:29:51;;;;;;;32.07;26.07;;;6.90;99.90;;;;;;5054510;28;20401;-57
2021/04/21 04:32:19;;;;;;;33.40;26.40;;;7.00;99.90;;;;;;5054661;28;20399;-56
2021/04/21 04:34:50;;;;;;;35.30;25.90;;;7.10;99.90;;;;;;5054748;28;20851;-58
2021/04/21 04:37:20;;;;;;;33.53;26.37;;;7.10;99.90;;;;;;5054510;28;20726;-59
2021/04/21 04:39:47;;;;;;;31.50;24.43;;;7.10;99.90;;;;;;5054008;28;20416;-58
2021/04/21 04:42:14;;;;;;;34.37;26.83;;;7.10;99.90;;;;;;5056944;28;20405;-56
2021/04/21 04:44:42;;;;;;;32.10;25.10;;;7.20;99.90;;;;;;5054376;28;20409;-57
2021/04/21 04:47:25;;;;;;;30.70;23.37;;;7.10;99.90;;;;;;5054305;28;20447;-57
2021/04/21 04:50:02;;;;;;;30.57;25.43;;;7.20;99.90;;;;;;5054311;28;20390;-55
2021/04/21 04:52:32;;;;;;;32.13;24.37;;;7.30;99.90;;;;;;5054386;28;20393;-58
2021/04/21 04:55:00;;;;;;;30.90;25.97;;;7.30;99.90;;;;;;5054319;28;20444;-56
2021/04/21 04:57:29;;;;;;;28.37;23.67;;;7.30;99.90;;;;;;5054119;28;20909;-57
2021/04/21 04:59:58;;;;;;;31.20;24.50;;;7.30;99.90;;;;;;5053776;28;20905;-57
2021/04/21 05:02:25;;;;;;;28.90;24.27;;;7.30;99.90;;;;;;5054401;28;20470;-57
2021/04/21 05:05:00;;;;;;;35.00;27.63;;;7.30;99.90;;;;;;5063429;28;20800;-57
2021/04/21 05:07:52;;;;;;;35.87;28.30;;;7.30;99.90;;;;;;5053628;28;20925;-57
2021/04/21 05:10:28;;;;;;;28.43;22.67;;;7.30;99.90;;;;;;5043232;28;20432;-58
2021/04/21 05:12:57;;;;;;;35.77;27.33;;;7.20;99.90;;;;;;5054118;28;20390;-56
2021/04/21 05:15:32;;;;;;;31.40;25.57;;;7.20;99.90;;;;;;5053067;28;20433;-53
2021/04/21 05:18:18;;;;;;;30.33;23.23;;;7.30;99.90;;;;;;5053602;28;20420;-57
2021/04/21 05:20:56;;;;;;;31.17;24.80;;;7.40;99.90;;;;;;5054008;28;20910;-58
2021/04/21 05:23:58;;;;;;;33.87;26.67;;;7.50;99.90;;;;;;5053418;28;20411;-55
2021/04/21 05:26:35;;;;;;;28.63;24.47;;;7.60;99.90;;;;;;5053684;28;20405;-58
2021/04/21 05:29:38;;;;;;;35.27;28.17;;;7.60;99.90;;;;;;5053846;28;20757;-58
2021/04/21 05:32:21;;;;;;;34.67;27.87;;;7.60;99.90;;;;;;5053289;28;20401;-58
2021/04/21 05:35:20;;;;;;;37.13;27.20;;;7.60;99.90;;;;;;5053569;28;20456;-57
2021/04/21 05:38:41;;;;;;;28.27;22.73;;;7.70;99.90;;;;;;5054044;28;20874;-54
2021/04/21 05:41:37;;;;;;;32.90;26.57;;;7.90;99.90;;;;;;5050160;28;20436;-58
2021/04/21 05:44:53;;;;;;;30.90;26.20;;;7.90;99.90;;;;;;5052705;28;20441;-57
2021/04/21 05:47:42;;;;;;;32.23;26.27;;;8.00;99.90;;;;;;5060865;28;20826;-53
2021/04/21 05:50:41;;;;;;;33.70;26.20;;;8.10;99.90;;;;;;5055302;28;20480;-56
2021/04/21 05:53:44;;;;;;;27.93;23.90;;;8.30;99.90;;;;;;5052594;28;20397;-57
2021/04/21 05:56:59;;;;;;;32.60;23.77;;;8.40;99.90;;;;;;5052691;28;20420;-57
2021/04/21 05:59:45;;;;;;;32.90;25.93;;;8.50;99.90;;;;;;5053375;28;20815;-58
2021/04/21 06:02:12;;;;;;;31.90;24.53;;;8.70;99.90;;;;;;5053082;28;20401;-54
2021/04/21 06:04:38;;;;;;;28.10;23.53;;;8.80;99.90;;;;;;5052863;28;20415;-56
2021/04/21 06:07:08;;;;;;;31.20;24.77;;;9.00;99.90;;;;;;5052996;28;20479;-56
2021/04/21 06:09:35;;;;;;;28.50;24.57;;;9.30;99.90;;;;;;5048982;28;20259;-57
2021/04/21 06:12:12;;;;;;;27.33;23.20;;;9.60;99.90;;;;;;5070936;28;20413;-57
2021/04/21 06:14:38;;;;;;;29.00;24.03;;;9.80;99.90;;;;;;5072764;28;20959;-57
2021/04/21 06:17:05;;;;;;;26.97;24.17;;;9.90;99.90;;;;;;5073219;28;20419;-55
2021/04/21 06:19:31;;;;;;;25.57;22.77;;;10.00;99.90;;;;;;5053846;28;20931;-56
2021/04/21 06:21:57;;;;;;;27.90;22.93;;;10.10;99.90;;;;;;5053173;28;20407;-57
2021/04/21 06:24:29;;;;;;;25.63;21.90;;;10.10;99.90;;;;;;5052235;28;20569;-56
2021/04/21 06:27:08;;;;;;;26.40;22.83;;;10.20;99.90;;;;;;5053190;28;20227;-57
2021/04/21 06:29:34;;;;;;;26.00;23.20;;;10.30;99.90;;;;;;5057334;28;20421;-58
2021/04/21 06:32:05;;;;;;;25.20;22.60;;;10.40;99.90;;;;;;5057304;28;20414;-57
2021/04/21 06:34:31;;;;;;;25.03;22.33;;;10.40;99.90;;;;;;5057218;28;20574;-57
2021/04/21 06:36:58;;;;;;;26.87;23.00;;;10.50;99.90;;;;;;5057279;28;20490;-55
2021/04/21 06:39:25;;;;;;;29.83;24.20;;;10.60;99.90;;;;;;5056318;28;20408;-58
2021/04/21 06:41:57;;;;;;;25.10;20.40;;;10.70;99.90;;;;;;5058216;28;20403;-58
2021/04/21 06:44:31;;;;;;;24.93;22.17;;;10.80;99.90;;;;;;5061347;28;20443;-56
2021/04/21 06:46:56;;;;;;;24.30;21.70;;;11.00;99.90;;;;;;5057886;28;20924;-56
2021/04/21 06:49:22;;;;;;;25.70;22.70;;;11.10;99.90;;;;;;5057136;28;20413;-58
2021/04/21 06:51:48;;;;;;;25.40;22.67;;;11.20;99.90;;;;;;5038754;28;20194;-58
2021/04/21 06:54:13;;;;;;;24.60;22.07;;;11.30;99.90;;;;;;5055950;28;20291;-56
2021/04/21 06:56:39;;;;;;;28.80;24.10;;;11.40;99.90;;;;;;5056990;28;20175;-56
2021/04/21 06:59:05;;;;;;;28.63;23.60;;;11.40;99.90;;;;;;5056636;28;20648;-56
2021/04/21 07:01:31;;;;;;;24.60;22.00;;;11.60;99.90;;;;;;5056339;28;20173;-56
2021/04/21 07:04:09;;;;;;;29.63;24.77;;;11.60;99.90;;;;;;5038096;28;20232;-58
2021/04/21 07:06:35;;;;;;;26.40;23.47;;;11.80;99.90;;;;;;5088866;22;20501;-57
2021/04/21 07:09:00;;;;;;;32.77;26.20;;;11.70;99.90;;;;;;5074979;28;20412;-58
2021/04/21 07:11:26;;;;;;;33.20;27.43;;;11.80;99.90;;;;;;5071506;28;20178;-54
2021/04/21 07:13:52;;;;;;;26.60;23.70;;;11.90;99.90;;;;;;5056358;28;20199;-56
2021/04/21 07:16:28;;;;;;;33.47;24.60;;;12.00;99.90;;;;;;5056433;28;20408;-54
2021/04/21 07:18:57;;;;;;;27.87;24.83;;;12.00;99.90;;;;;;5055535;28;20568;-58
2021/04/21 07:21:24;;;;;;;28.30;24.90;;;11.80;99.90;;;;;;5056474;28;20394;-57
2021/04/21 07:23:59;;;;;;;26.67;23.77;;;11.90;99.90;;;;;;5055792;28;20398;-58
2021/04/21 07:26:36;;;;;;;28.50;25.30;;;12.20;99.90;;;;;;5056176;28;20806;-58
2021/04/21 07:29:03;;;;;;;29.57;23.30;;;12.30;99.90;;;;;;5056101;28;20389;-58
2021/04/21 07:31:28;;;;;;;25.80;23.00;;;12.20;99.90;;;;;;5055985;28;20406;-59
2021/04/21 07:33:54;;;;;;;29.77;25.27;;;12.20;99.90;;;;;;5056024;28;20920;-58
2021/04/21 07:36:22;;;;;;;25.97;23.17;;;12.10;99.90;;;;;;5055905;28;20183;-56
2021/04/21 07:38:51;;;;;;;28.13;25.03;;;12.20;99.90;;;;;;5054380;28;20632;-57
2021/04/21 07:41:46;;;;;;;27.53;24.63;;;12.40;99.90;;;;;;5055682;28;20768;-57
2021/04/21 07:44:36;;;;;;;27.77;23.30;;;12.50;99.90;;;;;;5055203;28;20420;-58
2021/04/21 07:47:07;;;;;;;27.23;23.07;;;12.80;99.90;;;;;;5055578;28;20476;-60
2021/04/21 07:49:44;;;;;;;26.97;23.30;;;13.00;99.90;;;;;;5055717;28;20489;-60
2021/04/21 07:52:30;;;;;;;25.93;22.30;;;13.10;99.90;;;;;;5055546;28;20394;-61
2021/04/21 07:55:12;;;;;;;26.87;24.10;;;13.30;99.90;;;;;;5055499;28;20421;-60
2021/04/21 07:57:39;;;;;;;23.37;21.07;;;13.40;99.90;;;;;;5038443;28;20409;-58
2021/04/21 08:00:08;;;;;;;26.23;22.77;;;13.40;99.90;;;;;;5055943;28;20470;-61
2021/04/21 08:02:36;;;;;;;26.20;23.17;;;13.50;99.90;;;;;;5055647;28;20411;-61
2021/04/21 08:05:07;;;;;;;29.37;24.77;;;13.60;99.90;;;;;;5055149;28;20405;-61
2021/04/21 08:07:39;;;;;;;24.80;22.20;;;13.50;99.90;;;;;;5054326;28;20484;-61
2021/04/21 08:10:21;;;;;;;26.40;22.83;;;13.60;99.90;;;;;;5055484;28;20436;-59
2021/04/21 08:12:47;;;;;;;25.20;21.57;;;13.70;99.90;;;;;;5055542;28;20417;-61
2021/04/21 08:15:13;;;;;;;25.83;23.10;;;13.90;99.90;;;;;;5055114;28;20423;-61
2021/04/21 08:17:54;;;;;;;27.80;22.77;;;13.70;99.90;;;;;;5037372;28;20190;-61
2021/04/21 08:20:33;;;;;;;24.80;22.27;;;14.00;99.90;;;;;;5055843;28;20405;-59
2021/04/21 08:23:01;;;;;;;25.27;21.93;;;14.00;99.90;;;;;;5055027;28;20437;-60
2021/04/21 08:25:27;;;;;;;26.73;23.93;;;14.00;99.90;;;;;;5054982;28;20430;-61
2021/04/21 08:27:53;;;;;;;22.40;20.17;;;14.00;99.90;;;;;;5055231;28;20459;-60
2021/04/21 08:30:19;;;;;;;24.10;21.60;;;14.10;99.90;;;;;;5054269;28;20527;-58
2021/04/21 08:32:45;;;;;;;25.97;21.93;;;14.10;99.90;;;;;;5054973;28;20417;-60
2021/04/21 08:35:12;;;;;;;22.97;20.67;;;14.20;99.90;;;;;;5054861;28;20422;-59
2021/04/21 08:37:39;;;;;;;25.80;21.67;;;14.20;99.90;;;;;;5054695;28;20168;-59
2021/04/21 08:40:06;;;;;;;24.43;20.07;;;14.40;99.90;;;;;;5054916;28;20978;-61
2021/04/21 08:42:32;;;;;;;25.05;22.20;;;14.40;99.90;;;;;;5054070;28;20498;-61
2021/04/21 08:44:57;;;;;;;26.30;23.70;;;14.60;99.90;;;;;;5054896;28;20168;-60
2021/04/21 08:47:25;;;;;;;21.67;19.53;;;14.80;99.90;;;;;;5055356;28;20437;-61
2021/04/21 08:49:54;;;;;;;22.73;20.43;;;14.90;99.90;;;;;;5054692;28;20162;-60
2021/04/21 08:52:23;;;;;;;25.00;21.50;;;14.90;99.90;;;;;;5054053;28;20412;-60
2021/04/21 08:54:53;;;;;;;21.83;19.53;;;15.00;99.90;;;;;;5054431;28;20397;-60
2021/04/21 08:57:19;;;;;;;25.53;21.33;;;15.20;99.90;;;;;;5054972;28;20391;-60
2021/04/21 08:59:46;;;;;;;24.03;21.63;;;15.20;99.90;;;;;;5054489;28;20782;-60
2021/04/21 09:02:12;;;;;;;23.73;21.23;;;15.30;99.90;;;;;;5055425;28;20755;-60
2021/04/21 09:04:39;;;;;;;26.30;22.20;;;15.40;99.90;;;;;;5054457;28;20400;-60
2021/04/21 09:07:04;;;;;;;24.13;21.50;;;15.30;99.90;;;;;;5054454;28;20486;-61
2021/04/21 09:09:32;;;;;;;24.73;21.30;;;15.40;99.90;;;;;;5053715;28;20418;-61
2021/04/21 09:12:00;;;;;;;21.33;19.07;;;15.50;99.60;;;;;;5054626;28;20492;-61
2021/04/21 09:14:26;;;;;;;20.80;18.63;;;15.60;98.90;;;;;;5054271;28;20404;-61
2021/04/21 09:16:52;;;;;;;21.57;18.97;;;15.60;98.00;;;;;;5054218;28;20426;-61
2021/04/21 09:19:18;;;;;;;18.57;16.50;;;15.60;97.50;;;;;;5054087;28;20412;-61
2021/04/21 09:21:43;;;;;;;17.77;15.90;;;15.80;97.10;;;;;;5054077;28;20205;-61
2021/04/21 09:24:26;;;;;;;18.70;16.80;;;16.00;96.10;;;;;;5053717;28;20170;-60
2021/04/21 09:26:53;;;;;;;19.33;15.60;;;16.10;96.10;;;;;;5054094;28;20197;-60
2021/04/21 09:29:30;;;;;;;17.73;15.90;;;16.20;95.00;;;;;;5054060;28;20483;-59
2021/04/21 09:32:07;;;;;;;18.80;15.63;;;16.50;94.90;;;;;;5054061;28;20484;-60
2021/04/21 09:34:33;;;;;;;17.73;15.93;;;16.50;94.80;;;;;;5053776;28;20401;-59
2021/04/21 09:36:58;;;;;;;16.53;14.93;;;16.50;93.40;;;;;;5053591;28;20583;-59
2021/04/21 09:39:24;;;;;;;15.70;14.00;;;16.40;93.50;;;;;;5053065;28;20179;-60
2021/04/21 09:42:01;;;;;;;15.07;13.57;;;16.30;93.10;;;;;;5053831;28;20177;-60
2021/04/21 09:44:29;;;;;;;16.13;14.63;;;16.30;93.10;;;;;;5054113;28;20260;-60
2021/04/21 09:46:55;;;;;;;15.37;13.80;;;16.30;93.10;;;;;;5053794;28;20452;-60
2021/04/21 09:49:36;;;;;;;15.67;14.13;;;16.40;92.80;;;;;;5053955;28;20927;-61
2021/04/21 09:52:21;;;;;;;18.93;16.93;;;16.50;92.60;;;;;;5053515;28;20413;-61
2021/04/21 09:54:49;;;;;;;19.17;17.10;;;16.50;93.00;;;;;;5039082;28;20436;-61
2021/04/21 09:57:16;;;;;;;16.97;15.27;;;16.50;93.30;;;;;;5035417;28;20433;-60
2021/04/21 09:59:59;;;;;;;18.63;16.63;;;16.70;92.70;;;;;;5058112;28;20426;-60
2021/04/21 10:02:34;;;;;;;22.63;18.83;;;17.00;92.20;;;;;;5052978;28;20486;-59
2021/04/21 10:05:23;;;;;;;18.17;15.43;;;17.00;91.00;;;;;;5053411;28;20760;-56
2021/04/21 10:08:18;;;;;;;17.17;14.53;;;17.00;90.50;;;;;;5035172;28;20456;-58
2021/04/21 10:10:58;;;;;;;14.50;13.10;;;16.80;91.10;;;;;;5053888;28;20769;-57
2021/04/21 10:13:24;;;;;;;14.03;12.70;;;17.00;89.70;;;;;;5053237;28;20385;-57
2021/04/21 10:15:50;;;;;;;14.43;12.93;;;17.30;88.10;;;;;;5053361;28;20896;-58
2021/04/21 10:18:16;;;;;;;14.73;13.20;;;17.40;88.50;;;;;;5053558;28;20704;-59
2021/04/21 10:20:44;;;;;;;15.37;13.77;;;17.20;86.30;;;;;;5053241;28;20404;-59
2021/04/21 10:23:12;;;;;;;14.00;12.60;;;16.90;87.00;;;;;;5053486;28;20934;-59
2021/04/21 10:25:39;;;;;;;15.63;13.83;;;17.20;87.00;;;;;;5053659;28;20416;-58
2021/04/21 10:28:05;;;;;;;10.37;9.37;;;17.20;87.50;;;;;;5034951;28;20538;-55
2021/04/21 10:30:31;;;;;;;11.03;9.90;;;17.30;84.00;;;;;;5053466;28;20956;-57
2021/04/21 10:32:56;;;;;;;11.53;9.80;;;17.70;81.30;;;;;;5053043;28;20531;-57
2021/04/21 10:35:22;;;;;;;12.80;11.60;;;17.70;79.30;;;;;;5053422;28;20222;-58
2021/04/21 10:37:48;;;;;;;10.77;9.77;;;17.80;83.80;;;;;;5052787;28;20191;-57
2021/04/21 10:40:29;;;;;;;11.17;10.13;;;18.20;78.20;;;;;;5053072;28;20658;-60
2021/04/21 10:43:03;;;;;;;11.17;10.07;;;18.20;77.90;;;;;;5052996;28;20476;-58
2021/04/21 10:45:30;;;;;;;15.03;12.97;;;18.50;79.00;;;;;;5051653;28;20933;-57
2021/04/21 10:47:58;;;;;;;13.37;11.80;;;18.50;76.90;;;;;;5052603;28;20456;-56
2021/04/21 10:50:43;;;;;;;14.80;13.27;;;18.70;77.60;;;;;;5052829;28;20971;-57
2021/04/21 10:53:45;;;;;;;13.87;12.43;;;18.80;79.50;;;;;;5052870;28;20389;-57
2021/04/21 10:56:21;;;;;;;17.23;13.20;;;19.30;77.70;;;;;;4959052;28;20557;-58
2021/04/21 10:58:55;;;;;;;13.27;11.80;;;20.70;76.00;;;;;;5034700;28;20931;-58
2021/04/21 11:01:35;;;;;;;12.50;11.30;;;22.50;67.50;;;;;;5052008;28;20417;-58
2021/04/21 11:04:02;;;;;;;13.10;11.70;;;23.20;67.20;;;;;;5052660;28;20500;-58
2021/04/21 11:06:39;;;;;;;13.03;11.83;;;24.20;62.30;;;;;;5059798;28;20464;-58
2021/04/21 11:09:13;;;;;;;11.83;10.70;;;24.90;59.50;;;;;;5050860;28;20451;-58
2021/04/21 11:11:40;;;;;;;13.03;11.83;;;25.50;57.00;;;;;;5051299;28;20768;-58
2021/04/21 11:14:09;;;;;;;11.97;10.80;;;26.30;53.50;;;;;;5035649;28;20454;-58
2021/04/21 11:16:37;;;;;;;12.90;11.80;;;26.20;54.00;;;;;;5059925;28;20423;-57
2021/04/21 11:19:17;;;;;;;13.97;12.60;;;24.70;53.00;;;;;;5074300;28;20768;-56
2021/04/21 11:21:44;;;;;;;14.13;12.73;;;24.20;53.40;;;;;;5066978;28;20426;-58
2021/04/21 11:24:12;;;;;;;12.57;11.33;;;23.90;56.20;;;;;;5056106;28;20432;-58
2021/04/21 11:26:48;;;;;;;12.87;11.67;;;23.30;53.10;;;;;;5055441;28;20501;-59
2021/04/21 11:29:20;;;;;;;13.57;12.27;;;23.20;55.10;;;;;;5056414;28;20405;-59
2021/04/21 11:31:46;;;;;;;12.07;10.97;;;24.40;53.40;;;;;;5056532;28;20401;-59
2021/04/21 11:34:24;;;;;;;15.10;13.60;;;26.30;51.70;;;;;;5055750;28;20401;-59
2021/04/21 11:37:06;;;;;;;11.97;10.83;;;25.40;51.80;;;;;;5056100;28;20820;-59
2021/04/21 11:42:39;;;;;;;14.20;11.20;;;26.00;48.40;;;;;;5055857;28;20401;-53
2021/04/21 11:45:14;;;;;;;12.77;11.37;;;26.50;49.60;;;;;;5056020;28;20436;-57
2021/04/21 11:47:46;;;;;;;13.27;10.63;;;25.90;47.90;;;;;;5055657;28;21072;-56
2021/04/21 11:50:27;;;;;;;9.80;8.80;;;25.20;48.50;;;;;;5037851;28;20886;-58
2021/04/21 11:53:01;;;;;;;11.40;10.30;;;25.70;47.40;;;;;;5056034;28;20753;-59
2021/04/21 11:58:27;;;;;;;10.93;9.93;;;25.30;47.20;;;;;;5055968;28;20385;-58
2021/04/21 12:00:57;;;;;;;10.10;9.20;;;26.10;46.30;;;;;;5055479;28;20758;-55
2021/04/21 12:03:33;;;;;;;11.57;10.60;;;26.20;46.10;;;;;;5055697;28;20409;-57
2021/04/21 12:06:19;;;;;;;11.00;9.87;;;27.70;44.20;;;;;;5055407;28;20436;-59
2021/04/21 12:08:47;;;;;;;9.47;8.70;;;27.50;43.10;;;;;;5055320;28;20445;-58
2021/04/21 12:11:13;;;;;;;11.17;10.17;;;27.50;42.70;;;;;;5055132;28;20462;-59
2021/04/21 12:13:43;;;;;;;10.80;9.80;;;28.20;40.00;;;;;;5055654;28;20412;-58
2021/04/21 12:16:18;;;;;;;10.87;9.77;;;28.80;39.80;;;;;;5055601;28;20478;-55
2021/04/21 12:18:52;;;;;;;10.63;9.73;;;28.80;41.60;;;;;;5055681;28;20399;-59
2021/04/21 12:21:18;;;;;;;10.10;8.90;;;28.10;39.60;;;;;;5055833;28;20385;-60
2021/04/21 12:23:45;;;;;;;11.27;10.07;;;28.80;43.00;;;;;;5054938;28;20504;-56
2021/04/21 12:26:23;;;;;;;9.07;8.17;;;28.90;38.90;;;;;;5053766;28;20194;-60
2021/04/21 12:28:57;;;;;;;10.47;9.37;;;;;;;;;;5055596;28;20405;-60
2021/04/21 12:31:24;;;;;;;10.23;9.17;;;29.60;37.60;;;;;;5054840;28;20382;-59
2021/04/21 12:33:51;;;;;;;9.60;8.67;;;29.40;40.60;;;;;;5055025;28;20386;-60
2021/04/21 12:36:18;;;;;;;10.67;9.40;;;29.80;38.80;;;;;;5054805;28;20414;-59
2021/04/21 12:39:09;;;;;;;10.23;9.30;;;29.60;36.90;;;;;;5054933;28;20401;-60
2021/04/21 12:41:37;;;;;;;9.73;8.63;;;28.60;38.20;;;;;;5054246;28;20744;-60
2021/04/21 12:44:34;;;;;;;9.53;8.53;;;28.60;37.50;;;;;;5054997;28;20530;-57
2021/04/21 12:47:06;;;;;;;11.50;8.80;;;27.60;38.80;;;;;;5024608;28;20496;-60
2021/04/21 12:49:36;;;;;;;10.63;9.73;;;27.40;41.40;;;;;;5054814;28;20929;-59
2021/04/21 12:52:04;;;;;;;9.87;8.97;;;28.30;38.70;;;;;;5061457;28;20561;-60
2021/04/21 12:54:35;;;;;;;9.90;9.10;;;29.40;37.20;;;;;;5058519;28;20405;-60
2021/04/21 12:57:05;;;;;;;11.70;10.60;;;30.60;36.80;;;;;;5056847;28;20440;-59
2021/04/21 12:59:48;;;;;;;11.03;9.93;;;29.30;38.00;;;;;;5055293;28;20389;-60
2021/04/21 13:02:16;;;;;;;11.50;10.30;;;29.30;37.90;;;;;;5054862;28;20457;-59
2021/04/21 13:04:46;;;;;;;10.93;9.93;;;28.10;40.60;;;;;;5053733;28;20411;-59
2021/04/21 13:07:24;;;;;;;13.40;12.20;;;27.40;40.50;;;;;;5049235;23;20234;-57
2021/04/21 13:09:50;;;;;;;11.60;10.40;;;26.70;41.40;;;;;;5033970;28;20735;-56
2021/04/21 13:12:20;;;;;;;12.40;11.33;;;25.50;43.00;;;;;;5033031;28;20390;-56
2021/04/21 13:14:46;;;;;;;10.80;9.80;;;24.60;44.20;;;;;;5033898;28;20456;-57